createdAt,value
2019-01-04T03:56:10.753Z,21.1
2019-01-04T04:06:09.952Z,21.1
2019-01-04T04:16:09.152Z,21.3
2019-01-04T04:26:08.357Z,21.7
2019-01-04T04:36:07.557Z,21.8
2019-01-04T04:46:06.768Z,21.6
2019-01-04T04:56:06.031Z,21.8
2019-01-04T05:06:05.323Z,21.9
2019-01-04T05:16:04.619Z,21.9
2019-01-04T05:26:03.913Z,21.9
2019-01-04T05:36:03.214Z,21.9
2019-01-04T05:46:02.502Z,22
2019-01-04T05:56:01.710Z,22.1
2019-01-04T06:06:00.916Z,22
2019-01-04T06:16:00.113Z,22.1
2019-01-04T06:25:59.316Z,22.1
2019-01-04T06:35:58.523Z,22.1
2019-01-04T06:45:57.724Z,22.1
2019-01-04T06:55:56.919Z,22
2019-01-04T07:05:56.132Z,22.1
2019-01-04T07:15:55.329Z,22.3
2019-01-04T07:25:54.536Z,22.3
2019-01-04T07:35:53.737Z,22.4
2019-01-04T07:45:52.928Z,22.3
2019-01-04T07:55:52.139Z,22.2
2019-01-04T08:05:51.336Z,22.4
2019-01-04T08:15:50.534Z,22.4
2019-01-04T08:25:49.739Z,22.4
2019-01-04T08:35:48.939Z,22.4
2019-01-04T08:45:48.142Z,22.4
2019-01-04T08:55:47.346Z,22.4
2019-01-04T09:05:46.548Z,22.3
2019-01-04T09:15:45.742Z,22.4
2019-01-04T09:25:44.945Z,22.4
2019-01-04T09:35:44.144Z,22.3
2019-01-04T09:45:43.353Z,22.4
2019-01-04T09:55:42.547Z,22.4
2019-01-04T10:05:41.746Z,22.4
2019-01-04T10:15:40.943Z,22.4
2019-01-04T10:25:40.150Z,22.4
2019-01-04T10:35:39.345Z,22.4
2019-01-04T10:45:38.555Z,22.4
2019-01-04T10:55:37.750Z,22.4
2019-01-04T11:05:36.963Z,22.4
2019-01-04T11:15:36.163Z,22.5
2019-01-04T11:25:35.368Z,22.4
2019-01-04T11:35:34.573Z,22.4
2019-01-04T11:45:33.788Z,22.3
2019-01-04T11:55:32.985Z,22.1
2019-01-04T12:05:32.197Z,22.2
2019-01-04T12:15:31.399Z,22.3
2019-01-04T12:25:30.600Z,22.2
2019-01-04T12:35:29.810Z,22.2
2019-01-04T12:45:29.009Z,22.2
2019-01-04T12:55:28.215Z,22.2
2019-01-04T13:05:27.417Z,22
2019-01-04T13:15:26.619Z,22.1
2019-01-04T13:25:25.825Z,22.2
2019-01-04T13:35:25.036Z,22.1
2019-01-04T13:45:24.238Z,21.9
2019-01-04T13:55:23.437Z,21.9
2019-01-04T14:05:22.634Z,21.8
2019-01-04T14:15:21.845Z,21.9
2019-01-04T14:25:21.041Z,21.9
2019-01-04T14:35:20.246Z,22.2
2019-01-04T14:45:19.445Z,22.2
2019-01-04T14:55:18.642Z,22.3
2019-01-04T15:05:17.842Z,22.3
2019-01-04T15:15:17.045Z,22.3
2019-01-04T15:25:16.248Z,22.4
2019-01-04T15:35:15.447Z,22.3
2019-01-04T15:45:14.642Z,22.3
2019-01-04T15:55:13.846Z,22.3
2019-01-04T16:05:13.063Z,22.4
2019-01-04T16:15:12.267Z,22.5
2019-01-04T16:25:11.475Z,22.4
2019-01-04T16:35:10.678Z,22.4
2019-01-04T16:45:09.883Z,22.4
2019-01-04T16:55:09.089Z,22.4
2019-01-04T17:05:08.292Z,22.4
2019-01-04T17:15:07.505Z,22.4
2019-01-04T17:25:06.713Z,22.4
2019-01-04T17:35:05.912Z,22.5
2019-01-04T17:45:05.128Z,22.6
2019-01-04T17:55:04.345Z,22.5
2019-01-04T18:05:03.536Z,22.3
2019-01-04T18:15:02.756Z,22.3
2019-01-04T18:25:01.954Z,22.3
2019-01-04T18:35:01.161Z,22.4
2019-01-04T18:45:00.367Z,22.3
2019-01-04T18:54:59.577Z,22.3
2019-01-04T19:04:58.794Z,22.2
2019-01-04T19:14:58.001Z,22.4
2019-01-04T19:24:57.225Z,22.7
2019-01-04T19:34:56.451Z,22.6
2019-01-04T19:44:55.636Z,22.4
2019-01-04T19:54:54.856Z,22.3
2019-01-04T20:04:54.075Z,22.2
2019-01-04T20:14:53.283Z,22.1
2019-01-04T20:24:52.485Z,22.1
2019-01-04T20:34:51.709Z,22.1
2019-01-04T20:44:50.910Z,22
2019-01-04T20:54:50.116Z,21.9
2019-01-04T21:04:49.335Z,21.9
2019-01-04T21:14:48.534Z,21.8
2019-01-04T21:24:47.737Z,21.8
2019-01-04T21:34:46.944Z,21.8
2019-01-04T21:44:46.158Z,21.7
2019-01-04T21:54:45.360Z,21.6
2019-01-04T22:04:44.560Z,21.6
2019-01-04T22:14:43.766Z,21.6
2019-01-04T22:24:42.969Z,21.5
2019-01-04T22:34:42.172Z,21.5
2019-01-04T22:44:41.383Z,21.4
2019-01-04T22:54:40.575Z,21.4
2019-01-04T23:04:39.782Z,21.4
2019-01-04T23:14:38.996Z,21.4
2019-01-04T23:24:38.194Z,21.4
2019-01-04T23:34:37.388Z,21.3
2019-01-04T23:44:36.593Z,21.3
2019-01-04T23:54:35.800Z,21.3
